createdAt,value
2023-02-22T00:00:23.700Z,11.78
2023-02-22T00:02:50.580Z,11.70
2023-02-22T00:05:24.069Z,11.57
2023-02-22T00:07:50.183Z,11.53
2023-02-22T00:10:19.705Z,11.50
2023-02-22T00:12:51.800Z,11.63
2023-02-22T00:15:20.548Z,11.23
2023-02-22T00:17:46.853Z,11.59
2023-02-22T00:20:18.674Z,11.68
2023-02-22T00:22:46.792Z,11.74
2023-02-22T00:25:16.570Z,11.60
2023-02-22T00:27:43.577Z,11.06
2023-02-22T00:30:18.315Z,11.46
2023-02-22T00:32:48.127Z,11.60
2023-02-22T00:35:20.117Z,11.17
2023-02-22T00:37:50.932Z,11.35
2023-02-22T00:40:20.955Z,11.55
2023-02-22T00:42:47.128Z,11.60
2023-02-22T00:45:16.374Z,11.71
2023-02-22T00:47:42.521Z,11.72
2023-02-22T00:50:09.417Z,11.34
2023-02-22T00:52:36.266Z,11.26
2023-02-22T00:55:03.057Z,11.40
2023-02-22T00:57:29.127Z,11.16
2023-02-22T00:59:55.210Z,11.27
2023-02-22T01:02:21.292Z,11.00
2023-02-22T01:04:47.614Z,10.84
2023-02-22T01:07:14.230Z,10.77
2023-02-22T01:09:40.919Z,10.84
2023-02-22T01:12:07.459Z,10.91
2023-02-22T01:14:33.676Z,10.52
2023-02-22T01:16:59.773Z,10.45
2023-02-22T01:19:25.854Z,10.77
2023-02-22T01:21:51.963Z,10.38
2023-02-22T01:24:18.918Z,10.92
2023-02-22T01:26:51.851Z,11.13
2023-02-22T01:29:20.367Z,11.14
2023-02-22T01:31:54.790Z,10.59
2023-02-22T01:34:22.357Z,10.69
2023-02-22T01:36:48.779Z,11.07
2023-02-22T01:39:17.168Z,10.90
2023-02-22T01:41:45.034Z,10.93
2023-02-22T01:44:40.879Z,10.94
2023-02-22T01:47:10.242Z,11.01
2023-02-22T01:49:44.705Z,10.62
2023-02-22T01:52:15.564Z,10.76
2023-02-22T01:54:45.624Z,10.97
2023-02-22T01:57:15.524Z,10.85
2023-02-22T01:59:45.337Z,10.90
2023-02-22T02:02:12.909Z,11.04
2023-02-22T02:04:41.846Z,10.37
2023-02-22T02:07:09.942Z,10.38
2023-02-22T02:09:39.602Z,10.59
2023-02-22T02:14:33.322Z,9.44
2023-02-22T02:17:03.025Z,10.43
2023-02-22T02:19:47.455Z,10.43
2023-02-22T02:22:31.841Z,10.62
2023-02-22T02:25:37.074Z,10.59
2023-02-22T02:28:27.851Z,9.97
2023-02-22T02:31:12.732Z,9.89
2023-02-22T02:33:54.216Z,10.46
2023-02-22T02:36:25.008Z,10.35
2023-02-22T02:39:06.396Z,10.60
2023-02-22T02:41:42.365Z,10.58
2023-02-22T02:44:19.283Z,10.40
2023-02-22T02:47:01.577Z,10.83
2023-02-22T02:49:36.385Z,10.53
2023-02-22T02:52:03.652Z,10.61
2023-02-22T02:54:30.398Z,10.84
2023-02-22T02:56:57.148Z,10.17
2023-02-22T02:59:27.214Z,10.45
2023-02-22T03:02:16.565Z,10.56
2023-02-22T03:04:54.980Z,10.45
2023-02-22T03:07:48.845Z,10.54
2023-02-22T03:10:43.615Z,10.63
2023-02-22T03:13:10.991Z,10.57
2023-02-22T03:15:52.083Z,10.63
2023-02-22T03:18:23.003Z,9.64
2023-02-22T03:21:03.468Z,10.35
2023-02-22T03:23:48.094Z,10.62
2023-02-22T03:26:23.235Z,10.75
2023-02-22T03:28:51.156Z,9.00
2023-02-22T03:31:25.379Z,10.65
2023-02-22T03:33:55.176Z,10.31
2023-02-22T03:36:27.927Z,10.71
2023-02-22T03:38:55.120Z,10.56
2023-02-22T03:41:24.471Z,10.73
2023-02-22T03:44:04.851Z,10.70
2023-02-22T03:46:32.177Z,10.59
2023-02-22T03:49:06.281Z,10.48
2023-02-22T03:51:32.461Z,10.70
2023-02-22T03:53:58.647Z,10.47
2023-02-22T03:56:35.007Z,3.40
2023-02-22T03:59:10.588Z,10.89
2023-02-22T04:01:36.900Z,10.92
2023-02-22T04:04:03.455Z,10.67
2023-02-22T04:06:29.713Z,10.95
2023-02-22T04:08:56.033Z,9.82
2023-02-22T04:11:22.738Z,10.75
2023-02-22T04:13:48.871Z,10.16
2023-02-22T04:16:14.983Z,10.90
2023-02-22T04:18:41.294Z,10.38
2023-02-22T04:21:08.464Z,10.64
2023-02-22T04:23:34.637Z,10.68
2023-02-22T04:26:00.760Z,10.71
2023-02-22T04:28:26.866Z,10.05
2023-02-22T04:30:52.992Z,8.76
2023-02-22T04:33:19.149Z,9.41
2023-02-22T04:35:45.426Z,10.33
2023-02-22T04:38:11.504Z,10.82
2023-02-22T04:40:37.925Z,10.71
2023-02-22T04:43:04.034Z,10.69
2023-02-22T04:45:30.412Z,10.77
2023-02-22T04:47:56.460Z,10.86
2023-02-22T04:50:22.528Z,10.72
2023-02-22T04:52:48.844Z,9.97
2023-02-22T04:55:15.939Z,10.50
2023-02-22T04:57:42.058Z,10.03
2023-02-22T05:00:09.800Z,10.52
2023-02-22T05:02:39.372Z,10.81
2023-02-22T05:05:05.862Z,10.45
2023-02-22T05:07:32.372Z,10.74
2023-02-22T05:09:58.461Z,10.68
2023-02-22T05:12:26.718Z,9.11
2023-02-22T05:14:52.914Z,10.48
2023-02-22T05:17:19.005Z,10.45
2023-02-22T05:19:45.748Z,9.93
2023-02-22T05:22:11.797Z,10.45
2023-02-22T05:24:37.914Z,10.29
2023-02-22T05:27:04.047Z,10.49
2023-02-22T05:29:30.190Z,10.48
2023-02-22T05:31:57.604Z,10.77
2023-02-22T05:34:23.716Z,10.45
2023-02-22T05:36:49.761Z,10.54
2023-02-22T05:39:15.909Z,10.16
2023-02-22T05:41:41.999Z,10.41
2023-02-22T05:44:08.068Z,10.15
2023-02-22T05:46:34.264Z,9.68
2023-02-22T05:49:00.405Z,10.45
2023-02-22T05:51:26.513Z,10.73
2023-02-22T05:53:52.688Z,10.54
2023-02-22T05:56:27.596Z,10.54
2023-02-22T05:58:54.077Z,10.34
2023-02-22T06:01:20.973Z,8.92
2023-02-22T06:03:50.307Z,10.45
2023-02-22T06:06:16.904Z,10.02
2023-02-22T06:08:43.301Z,10.23
2023-02-22T06:11:09.756Z,9.80
2023-02-22T06:13:36.079Z,10.31
2023-02-22T06:16:02.996Z,10.28
2023-02-22T06:18:30.544Z,10.06
2023-02-22T06:20:57.539Z,10.20
2023-02-22T06:23:24.116Z,10.27
2023-02-22T06:25:50.211Z,10.05
2023-02-22T06:28:16.303Z,10.14
2023-02-22T06:30:42.549Z,10.40
2023-02-22T06:33:09.442Z,10.01
2023-02-22T06:35:35.563Z,10.35
2023-02-22T06:38:01.682Z,10.39
2023-02-22T06:40:30.976Z,10.06
2023-02-22T06:42:57.479Z,10.22
2023-02-22T06:45:23.737Z,10.07
2023-02-22T06:47:49.917Z,8.91
2023-02-22T06:50:25.791Z,10.20
2023-02-22T06:52:52.096Z,9.92
2023-02-22T06:55:20.529Z,10.26
2023-02-22T06:57:46.683Z,10.32
2023-02-22T07:00:16.417Z,9.98
2023-02-22T07:02:42.701Z,10.12
2023-02-22T07:05:11.137Z,10.02
2023-02-22T07:07:38.106Z,9.49
2023-02-22T07:10:09.358Z,9.95
2023-02-22T07:12:35.443Z,10.01
2023-02-22T07:15:01.551Z,9.99
2023-02-22T07:17:27.633Z,10.17
2023-02-22T07:19:53.689Z,9.95
2023-02-22T07:22:19.748Z,10.09
2023-02-22T07:24:47.196Z,9.86
2023-02-22T07:27:13.272Z,9.75
2023-02-22T07:29:42.125Z,9.74
2023-02-22T07:32:08.358Z,10.00
2023-02-22T07:34:34.441Z,10.10
2023-02-22T07:37:00.512Z,10.01
2023-02-22T07:39:26.676Z,10.05
2023-02-22T07:41:52.747Z,9.96
2023-02-22T07:44:18.817Z,10.23
2023-02-22T07:46:48.505Z,9.45
2023-02-22T07:49:14.591Z,10.12
2023-02-22T07:51:40.645Z,9.47
2023-02-22T07:54:06.829Z,9.60
2023-02-22T07:56:32.921Z,9.05
2023-02-22T07:59:00.632Z,9.98
2023-02-22T08:01:26.737Z,9.90
2023-02-22T08:03:53.316Z,9.71
2023-02-22T08:06:20.288Z,9.91
2023-02-22T08:08:46.452Z,9.94
2023-02-22T08:11:12.608Z,9.79
2023-02-22T08:13:38.915Z,9.73
2023-02-22T08:16:05.057Z,9.56
2023-02-22T08:18:31.121Z,9.72
2023-02-22T08:20:57.185Z,9.98
2023-02-22T08:23:26.163Z,10.03
2023-02-22T08:25:52.816Z,10.03
2023-02-22T08:28:21.827Z,9.73
2023-02-22T08:30:48.471Z,9.72
2023-02-22T08:33:18.518Z,9.92
2023-02-22T08:35:48.742Z,9.87
2023-02-22T08:38:23.618Z,9.77
2023-02-22T08:40:49.985Z,9.54
2023-02-22T08:43:17.136Z,10.05
2023-02-22T08:45:43.852Z,10.04
2023-02-22T08:48:10.060Z,8.92
2023-02-22T08:50:37.410Z,9.96
2023-02-22T08:53:05.073Z,9.80
2023-02-22T08:55:33.314Z,9.67
2023-02-22T08:58:02.103Z,10.02
2023-02-22T09:00:32.191Z,9.80
2023-02-22T09:03:06.856Z,9.84
2023-02-22T09:05:33.015Z,10.14
2023-02-22T09:08:00.012Z,10.27
2023-02-22T09:10:29.174Z,9.98
2023-02-22T09:12:55.392Z,9.93
2023-02-22T09:15:22.049Z,9.89
2023-02-22T09:17:48.688Z,9.97
2023-02-22T09:20:17.309Z,10.12
2023-02-22T09:22:47.046Z,9.70
2023-02-22T09:25:17.010Z,9.98
2023-02-22T09:27:44.356Z,10.35
2023-02-22T09:30:34.485Z,5.76
2023-02-22T09:33:05.075Z,10.54
2023-02-22T09:35:35.220Z,10.48
2023-02-22T09:38:03.001Z,8.64
2023-02-22T09:40:30.917Z,9.96
2023-02-22T09:43:06.876Z,10.01
2023-02-22T09:45:48.231Z,10.52
2023-02-22T09:48:21.996Z,10.46
2023-02-22T09:50:50.922Z,10.38
2023-02-22T09:53:47.722Z,10.82
2023-02-22T09:56:17.253Z,10.86
2023-02-22T09:58:48.944Z,11.16
2023-02-22T10:01:18.108Z,11.08
2023-02-22T10:03:51.426Z,11.01
2023-02-22T10:06:22.577Z,10.81
2023-02-22T10:08:53.059Z,10.88
2023-02-22T10:11:34.750Z,10.83
2023-02-22T10:14:43.926Z,11.24
2023-02-22T10:17:10.243Z,10.94
2023-02-22T10:20:12.732Z,11.76
2023-02-22T10:23:27.797Z,11.40
2023-02-22T10:26:05.161Z,11.41
2023-02-22T10:28:43.968Z,11.50
2023-02-22T10:31:21.697Z,12.04
2023-02-22T10:33:53.073Z,11.93
2023-02-22T10:36:22.000Z,11.84
2023-02-22T10:38:54.822Z,11.86
2023-02-22T10:41:28.565Z,7.05
2023-02-22T10:43:55.159Z,11.97
2023-02-22T10:46:21.900Z,12.90
2023-02-22T10:48:50.915Z,11.76
2023-02-22T10:51:16.978Z,12.52
2023-02-22T10:53:43.787Z,12.60
2023-02-22T10:56:21.995Z,12.58
2023-02-22T10:59:05.373Z,12.17
2023-02-22T11:01:31.463Z,12.74
2023-02-22T11:04:16.652Z,12.80
2023-02-22T11:06:47.509Z,13.35
2023-02-22T11:09:22.981Z,12.82
2023-02-22T11:11:50.644Z,13.39
2023-02-22T11:14:28.439Z,11.91
2023-02-22T11:16:56.179Z,12.58
2023-02-22T11:19:25.351Z,12.60
2023-02-22T11:21:56.044Z,12.70
2023-02-22T11:24:23.695Z,13.25
2023-02-22T11:26:53.754Z,12.90
2023-02-22T11:29:34.957Z,12.87
2023-02-22T11:32:13.598Z,12.74
2023-02-22T11:34:42.056Z,14.23
2023-02-22T11:37:17.019Z,14.12
2023-02-22T11:39:43.972Z,12.77
2023-02-22T11:42:27.268Z,13.55
2023-02-22T11:45:20.906Z,14.38
2023-02-22T11:47:51.794Z,13.88
2023-02-22T11:50:39.312Z,14.03
2023-02-22T11:53:21.328Z,14.13
2023-02-22T11:55:50.105Z,13.97
2023-02-22T11:58:19.207Z,13.94
2023-02-22T12:01:01.366Z,13.50
2023-02-22T12:03:49.620Z,13.63
2023-02-22T12:06:40.964Z,13.63
2023-02-22T12:09:13.508Z,13.91
2023-02-22T12:12:02.945Z,14.43
2023-02-22T12:14:56.440Z,14.44
2023-02-22T12:17:41.797Z,14.98
2023-02-22T12:20:24.071Z,14.56
2023-02-22T12:23:00.474Z,14.64
2023-02-22T12:25:31.572Z,14.26
2023-02-22T12:28:24.387Z,13.95
2023-02-22T12:31:03.947Z,14.29
2023-02-22T12:33:39.519Z,12.55
2023-02-22T12:36:08.733Z,14.13
2023-02-22T12:38:38.735Z,13.16
2023-02-22T12:41:19.943Z,14.24
2023-02-22T12:44:08.792Z,13.74
2023-02-22T12:46:48.196Z,13.76
2023-02-22T12:49:23.435Z,13.87
2023-02-22T12:52:21.410Z,14.08
2023-02-22T12:54:55.941Z,14.01
2023-02-22T12:57:43.767Z,13.71
2023-02-22T13:00:22.473Z,13.93
2023-02-22T13:02:56.495Z,14.09
2023-02-22T13:05:22.747Z,14.45
2023-02-22T13:07:54.738Z,14.43
2023-02-22T13:11:05.830Z,14.99
2023-02-22T13:13:35.992Z,14.03
2023-02-22T13:16:23.183Z,14.52
2023-02-22T13:19:16.692Z,14.21
2023-02-22T13:21:52.897Z,14.22
2023-02-22T13:24:25.831Z,14.25
2023-02-22T13:27:01.556Z,14.85
2023-02-22T13:29:38.042Z,14.97
2023-02-22T13:32:25.242Z,14.85
2023-02-22T13:35:13.099Z,14.74
2023-02-22T13:37:52.059Z,14.51
2023-02-22T13:40:20.864Z,14.73
2023-02-22T13:43:38.082Z,14.66
2023-02-22T13:46:17.394Z,15.00
2023-02-22T13:49:07.980Z,14.68
2023-02-22T13:51:47.344Z,13.95
2023-02-22T13:54:28.364Z,14.45
2023-02-22T13:56:56.348Z,14.21
2023-02-22T13:59:36.625Z,14.41
2023-02-22T14:02:04.740Z,14.64
2023-02-22T14:04:30.774Z,14.45
2023-02-22T14:07:01.790Z,14.38
2023-02-22T14:09:49.853Z,14.65
2023-02-22T14:12:33.880Z,14.64
2023-02-22T14:15:28.584Z,14.46
2023-02-22T14:18:03.123Z,14.34
2023-02-22T14:20:31.577Z,14.66
2023-02-22T14:23:28.476Z,14.58
2023-02-22T14:25:55.112Z,14.52
2023-02-22T14:28:39.032Z,14.23
2023-02-22T14:31:13.893Z,14.32
2023-02-22T14:34:09.781Z,14.04
2023-02-22T14:36:55.960Z,14.28
2023-02-22T14:39:41.391Z,14.19
2023-02-22T14:42:23.347Z,12.87
2023-02-22T14:45:09.121Z,14.30
2023-02-22T14:47:48.746Z,13.65
2023-02-22T14:50:43.117Z,14.17
2023-02-22T14:53:12.226Z,14.23
2023-02-22T14:55:42.364Z,14.25
2023-02-22T14:58:17.924Z,14.30
2023-02-22T15:00:46.436Z,12.76
2023-02-22T15:03:21.706Z,14.39
2023-02-22T15:05:49.078Z,14.05
2023-02-22T15:08:17.096Z,13.90
2023-02-22T15:10:45.374Z,14.14
2023-02-22T15:13:14.749Z,14.19
2023-02-22T15:15:46.024Z,14.11
2023-02-22T15:18:31.967Z,14.08
2023-02-22T15:21:07.086Z,14.01
2023-02-22T15:23:42.584Z,14.05
2023-02-22T15:26:16.758Z,12.30
2023-02-22T15:28:42.896Z,13.98
2023-02-22T15:31:18.233Z,13.90
2023-02-22T15:33:44.508Z,14.01
2023-02-22T15:36:17.042Z,13.77
2023-02-22T15:38:48.560Z,13.90
2023-02-22T15:41:40.992Z,13.99
2023-02-22T15:44:24.574Z,12.58
2023-02-22T15:46:53.679Z,13.91
2023-02-22T15:49:22.540Z,13.95
2023-02-22T15:52:01.408Z,13.99
2023-02-22T15:54:28.205Z,13.95
2023-02-22T15:56:55.761Z,13.10
2023-02-22T15:59:28.789Z,12.36
2023-02-22T16:01:55.691Z,13.62
2023-02-22T16:04:23.853Z,13.89
2023-02-22T16:06:52.665Z,12.08
2023-02-22T16:09:28.239Z,13.80
2023-02-22T16:12:08.774Z,12.66
2023-02-22T16:14:34.808Z,13.68
2023-02-22T16:17:30.100Z,13.12
2023-02-22T16:19:58.138Z,13.72
2023-02-22T16:22:26.023Z,13.70
2023-02-22T16:24:53.821Z,13.77
2023-02-22T16:27:22.969Z,13.45
2023-02-22T16:30:24.755Z,13.62
2023-02-22T16:32:53.790Z,12.29
2023-02-22T16:35:20.169Z,13.69
2023-02-22T16:37:51.253Z,12.67
2023-02-22T16:40:23.158Z,13.71
2023-02-22T16:42:50.820Z,12.21
2023-02-22T16:45:18.844Z,13.61
2023-02-22T16:47:45.239Z,13.56
2023-02-22T16:50:12.420Z,13.53
2023-02-22T16:52:39.601Z,13.53
2023-02-22T16:55:11.766Z,13.46
2023-02-22T16:57:38.880Z,13.35
2023-02-22T17:00:09.082Z,13.38
2023-02-22T17:02:35.272Z,8.67
2023-02-22T17:05:01.399Z,13.22
2023-02-22T17:07:30.099Z,13.28
2023-02-22T17:10:00.127Z,13.11
2023-02-22T17:12:28.502Z,13.25
2023-02-22T17:14:54.936Z,13.22
2023-02-22T17:17:21.069Z,13.25
2023-02-22T17:19:47.170Z,13.33
2023-02-22T17:22:18.678Z,11.01
2023-02-22T17:24:45.221Z,13.24
2023-02-22T17:27:11.901Z,13.07
2023-02-22T17:29:37.975Z,13.23
2023-02-22T17:32:04.397Z,13.16
2023-02-22T17:34:31.923Z,13.01
2023-02-22T17:36:58.034Z,12.96
2023-02-22T17:39:26.603Z,12.80
2023-02-22T17:41:56.912Z,12.97
2023-02-22T17:44:24.947Z,13.09
2023-02-22T17:46:52.233Z,13.10
2023-02-22T17:49:18.492Z,13.03
2023-02-22T17:51:48.840Z,12.98
2023-02-22T17:54:16.794Z,13.09
2023-02-22T17:56:42.941Z,13.04
2023-02-22T17:59:09.129Z,13.03
2023-02-22T18:01:35.506Z,11.63
2023-02-22T18:04:02.607Z,13.08
2023-02-22T18:06:31.891Z,13.04
2023-02-22T18:08:59.172Z,12.96
2023-02-22T18:11:26.670Z,12.99
2023-02-22T18:13:56.562Z,13.00
2023-02-22T18:16:24.831Z,12.93
2023-02-22T18:18:51.267Z,11.59
2023-02-22T18:21:17.427Z,12.85
2023-02-22T18:23:46.295Z,12.67
2023-02-22T18:26:17.228Z,12.70
2023-02-22T18:28:43.931Z,12.07
2023-02-22T18:31:15.503Z,12.77
2023-02-22T18:33:43.418Z,12.74
2023-02-22T18:36:13.453Z,12.70
2023-02-22T18:38:44.002Z,11.11
2023-02-22T18:41:12.644Z,12.57
2023-02-22T18:43:39.311Z,12.61
2023-02-22T18:46:09.240Z,10.59
2023-02-22T18:48:35.806Z,12.63
2023-02-22T18:51:05.166Z,12.79
2023-02-22T18:53:31.439Z,12.71
2023-02-22T18:56:07.622Z,11.72
2023-02-22T18:58:34.320Z,12.66
2023-02-22T19:01:01.588Z,12.69
2023-02-22T19:03:28.784Z,12.70
2023-02-22T19:06:00.372Z,12.41
2023-02-22T19:08:26.455Z,10.38
2023-02-22T19:10:52.546Z,12.50
2023-02-22T19:13:20.369Z,12.31
2023-02-22T19:15:46.440Z,12.31
2023-02-22T19:18:12.628Z,12.42
2023-02-22T19:23:09.450Z,12.51
2023-02-22T19:25:40.351Z,12.52
2023-02-22T19:28:06.454Z,12.61
2023-02-22T19:30:32.613Z,11.37
2023-02-22T19:32:58.818Z,11.01
2023-02-22T19:35:27.843Z,11.00
2023-02-22T19:37:57.456Z,12.46
2023-02-22T19:40:23.974Z,12.29
2023-02-22T19:42:51.284Z,12.37
2023-02-22T19:45:18.767Z,12.55
2023-02-22T19:47:46.022Z,12.32
2023-02-22T19:50:18.002Z,12.42
2023-02-22T19:52:44.752Z,12.13
2023-02-22T19:55:13.480Z,12.01
2023-02-22T19:57:45.650Z,12.26
2023-02-22T20:00:12.832Z,12.30
2023-02-22T20:02:39.961Z,12.32
2023-02-22T20:05:09.482Z,10.72
2023-02-22T20:07:36.762Z,11.55
2023-02-22T20:10:07.080Z,12.09
2023-02-22T20:12:33.236Z,12.19
2023-02-22T20:14:59.486Z,12.23
2023-02-22T20:17:26.525Z,12.34
2023-02-22T20:19:53.098Z,12.19
2023-02-22T20:22:20.222Z,12.15
2023-02-22T20:24:46.936Z,11.83
2023-02-22T20:27:13.532Z,12.14
2023-02-22T20:29:39.966Z,10.65
2023-02-22T20:32:10.050Z,10.71
2023-02-22T20:34:36.428Z,11.40
2023-02-22T20:37:04.055Z,11.88
2023-02-22T20:39:30.235Z,11.51
2023-02-22T20:41:59.696Z,11.74
2023-02-22T20:44:25.735Z,12.00
2023-02-22T20:46:51.833Z,11.73
2023-02-22T20:49:19.237Z,11.66
2023-02-22T20:51:45.743Z,10.69
2023-02-22T20:54:12.219Z,11.63
2023-02-22T20:56:41.126Z,11.77
2023-02-22T20:59:08.186Z,11.75
2023-02-22T21:01:35.132Z,11.70
2023-02-22T21:04:01.892Z,11.28
2023-02-22T21:06:28.858Z,11.75
2023-02-22T21:08:57.172Z,11.77
2023-02-22T21:11:26.179Z,9.46
2023-02-22T21:13:52.884Z,10.90
2023-02-22T21:16:22.049Z,11.54
2023-02-22T21:18:57.390Z,11.11
2023-02-22T21:21:23.761Z,11.34
2023-02-22T21:23:52.710Z,11.23
2023-02-22T21:26:22.873Z,11.14
2023-02-22T21:28:51.641Z,10.09
2023-02-22T21:31:20.288Z,11.38
2023-02-22T21:33:49.218Z,11.05
2023-02-22T21:36:15.285Z,11.15
2023-02-22T21:38:45.967Z,10.86
2023-02-22T21:41:13.137Z,10.75
2023-02-22T21:43:42.068Z,9.11
2023-02-22T21:46:12.207Z,11.06
2023-02-22T21:48:40.395Z,11.39
2023-02-22T21:51:13.171Z,10.84
2023-02-22T21:53:45.091Z,10.78
2023-02-22T21:56:15.183Z,11.41
2023-02-22T21:58:45.073Z,11.34
2023-02-22T22:01:16.364Z,11.12
2023-02-22T22:03:46.022Z,11.42
2023-02-22T22:06:13.699Z,10.96
2023-02-22T22:08:41.020Z,11.31
2023-02-22T22:11:08.936Z,11.45
2023-02-22T22:13:37.004Z,11.44
2023-02-22T22:16:05.060Z,11.26
2023-02-22T22:18:31.851Z,11.51
2023-02-22T22:20:58.755Z,11.44
2023-02-22T22:23:25.792Z,11.48
2023-02-22T22:26:01.341Z,10.88
2023-02-22T22:28:30.795Z,10.85
2023-02-22T22:30:57.279Z,9.59
2023-02-22T22:33:23.454Z,11.10
2023-02-22T22:35:49.487Z,11.07
2023-02-22T22:38:16.583Z,11.04
2023-02-22T22:40:42.691Z,11.08
2023-02-22T22:43:08.737Z,10.17
2023-02-22T22:45:35.007Z,11.03
2023-02-22T22:48:01.558Z,11.23
2023-02-22T22:50:28.131Z,11.33
2023-02-22T22:52:57.403Z,11.38
2023-02-22T22:55:23.588Z,11.41
2023-02-22T22:57:51.102Z,11.45
2023-02-22T23:00:36.340Z,11.45
2023-02-22T23:03:08.868Z,11.29
2023-02-22T23:05:37.051Z,10.07
2023-02-22T23:08:09.790Z,6.49
2023-02-22T23:10:40.295Z,11.04
2023-02-22T23:13:09.284Z,11.12
2023-02-22T23:15:37.739Z,11.13
2023-02-22T23:18:06.762Z,10.91
2023-02-22T23:20:37.857Z,10.58
2023-02-22T23:23:05.351Z,10.53
2023-02-22T23:25:34.455Z,10.74
2023-02-22T23:28:01.092Z,10.84
2023-02-22T23:30:27.231Z,10.39
2023-02-22T23:32:53.538Z,10.84
2023-02-22T23:35:19.605Z,11.10
2023-02-22T23:37:57.175Z,7.05
2023-02-22T23:40:25.232Z,11.06
2023-02-22T23:42:55.235Z,11.19
2023-02-22T23:45:22.994Z,11.02
2023-02-22T23:47:54.296Z,11.28
2023-02-22T23:50:22.442Z,10.93
2023-02-22T23:52:49.892Z,10.97
2023-02-22T23:55:20.011Z,9.80
2023-02-22T23:57:46.998Z,11.43
